sensor_id;sensor_type;location;lat;lon;timestamp;temperature;humidity
25332;DHT22;13284;52.748;13.452;2023-07-09T00:00:33;18.30;99.90
25332;DHT22;13284;52.748;13.452;2023-07-09T00:02:58;18.30;99.90
25332;DHT22;13284;52.748;13.452;2023-07-09T00:05:23;18.30;99.90
25332;DHT22;13284;52.748;13.452;2023-07-09T00:07:50;18.10;99.90
25332;DHT22;13284;52.748;13.452;2023-07-09T00:10:20;18.10;99.90
25332;DHT22;13284;52.748;13.452;2023-07-09T00:12:46;18.10;99.90
25332;DHT22;13284;52.748;13.452;2023-07-09T00:15:13;18.00;99.90
25332;DHT22;13284;52.748;13.452;2023-07-09T00:17:41;18.00;99.90
25332;DHT22;13284;52.748;13.452;2023-07-09T00:20:15;17.90;99.90
25332;DHT22;13284;52.748;13.452;2023-07-09T00:22:41;17.90;99.90
25332;DHT22;13284;52.748;13.452;2023-07-09T00:25:10;17.80;99.90
25332;DHT22;13284;52.748;13.452;2023-07-09T00:27:39;17.70;99.90
25332;DHT22;13284;52.748;13.452;2023-07-09T00:30:08;17.70;99.90
25332;DHT22;13284;52.748;13.452;2023-07-09T00:32:35;17.70;99.90
25332;DHT22;13284;52.748;13.452;2023-07-09T00:35:08;17.60;99.90
25332;DHT22;13284;52.748;13.452;2023-07-09T00:37:34;17.60;99.90
25332;DHT22;13284;52.748;13.452;2023-07-09T00:40:00;17.50;99.90
25332;DHT22;13284;52.748;13.452;2023-07-09T00:42:25;17.50;99.90
25332;DHT22;13284;52.748;13.452;2023-07-09T00:44:53;17.40;99.90
25332;DHT22;13284;52.748;13.452;2023-07-09T00:47:22;17.40;99.90
25332;DHT22;13284;52.748;13.452;2023-07-09T00:50:01;17.40;99.90
25332;DHT22;13284;52.748;13.452;2023-07-09T00:52:33;17.20;99.90
25332;DHT22;13284;52.748;13.452;2023-07-09T00:55:06;17.20;99.90
25332;DHT22;13284;52.748;13.452;2023-07-09T00:57:34;17.20;99.90
25332;DHT22;13284;52.748;13.452;2023-07-09T01:00:08;17.10;99.90
25332;DHT22;13284;52.748;13.452;2023-07-09T01:02:38;17.10;99.90
25332;DHT22;13284;52.748;13.452;2023-07-09T01:05:09;17.10;99.90
25332;DHT22;13284;52.748;13.452;2023-07-09T01:07:36;17.00;99.90
25332;DHT22;13284;52.748;13.452;2023-07-09T01:10:02;16.90;99.90
25332;DHT22;13284;52.748;13.452;2023-07-09T01:12:27;16.90;99.90
25332;DHT22;13284;52.748;13.452;2023-07-09T01:14:56;16.80;99.90
25332;DHT22;13284;52.748;13.452;2023-07-09T01:17:25;16.80;99.90
25332;DHT22;13284;52.748;13.452;2023-07-09T01:19:53;16.70;99.90
25332;DHT22;13284;52.748;13.452;2023-07-09T01:22:21;16.70;99.90
25332;DHT22;13284;52.748;13.452;2023-07-09T01:24:59;16.70;99.90
25332;DHT22;13284;52.748;13.452;2023-07-09T01:27:32;16.70;99.90
25332;DHT22;13284;52.748;13.452;2023-07-09T01:30:06;16.60;99.90
25332;DHT22;13284;52.748;13.452;2023-07-09T01:32:32;16.50;99.90
25332;DHT22;13284;52.748;13.452;2023-07-09T01:35:00;16.50;99.90
25332;DHT22;13284;52.748;13.452;2023-07-09T01:37:31;16.50;99.90
25332;DHT22;13284;52.748;13.452;2023-07-09T01:39:57;16.50;99.90
25332;DHT22;13284;52.748;13.452;2023-07-09T01:42:24;16.40;99.90
25332;DHT22;13284;52.748;13.452;2023-07-09T01:44:52;16.40;99.90
25332;DHT22;13284;52.748;13.452;2023-07-09T01:47:19;16.30;99.90
25332;DHT22;13284;52.748;13.452;2023-07-09T01:49:45;16.30;99.90
25332;DHT22;13284;52.748;13.452;2023-07-09T01:52:15;16.20;99.90
25332;DHT22;13284;52.748;13.452;2023-07-09T01:54:42;16.20;99.90
25332;DHT22;13284;52.748;13.452;2023-07-09T01:57:22;16.20;99.90
25332;DHT22;13284;52.748;13.452;2023-07-09T01:59:53;16.20;99.90
25332;DHT22;13284;52.748;13.452;2023-07-09T02:02:20;16.10;99.90
25332;DHT22;13284;52.748;13.452;2023-07-09T02:04:48;16.10;99.90
25332;DHT22;13284;52.748;13.452;2023-07-09T02:07:14;16.10;99.90
25332;DHT22;13284;52.748;13.452;2023-07-09T02:09:40;16.10;99.90
25332;DHT22;13284;52.748;13.452;2023-07-09T02:12:06;16.10;99.90
25332;DHT22;13284;52.748;13.452;2023-07-09T02:14:35;16.00;99.90
25332;DHT22;13284;52.748;13.452;2023-07-09T02:17:00;16.00;99.90
25332;DHT22;13284;52.748;13.452;2023-07-09T02:19:27;16.00;99.90
25332;DHT22;13284;52.748;13.452;2023-07-09T02:21:53;15.90;99.90
25332;DHT22;13284;52.748;13.452;2023-07-09T02:24:18;15.90;99.90
25332;DHT22;13284;52.748;13.452;2023-07-09T02:26:44;15.90;99.90
25332;DHT22;13284;52.748;13.452;2023-07-09T02:29:10;15.90;99.90
25332;DHT22;13284;52.748;13.452;2023-07-09T02:31:35;15.90;99.90
25332;DHT22;13284;52.748;13.452;2023-07-09T02:34:01;15.90;99.90
25332;DHT22;13284;52.748;13.452;2023-07-09T02:36:28;15.90;99.90
25332;DHT22;13284;52.748;13.452;2023-07-09T02:38:53;15.80;99.90
25332;DHT22;13284;52.748;13.452;2023-07-09T02:41:19;15.80;99.90
25332;DHT22;13284;52.748;13.452;2023-07-09T02:43:45;15.70;99.90
25332;DHT22;13284;52.748;13.452;2023-07-09T02:46:10;15.70;99.90
25332;DHT22;13284;52.748;13.452;2023-07-09T02:48:35;15.70;99.90
25332;DHT22;13284;52.748;13.452;2023-07-09T02:51:01;15.60;99.90
25332;DHT22;13284;52.748;13.452;2023-07-09T02:53:27;15.70;99.90
25332;DHT22;13284;52.748;13.452;2023-07-09T02:55:53;15.70;99.90
25332;DHT22;13284;52.748;13.452;2023-07-09T02:58:18;15.60;99.90
25332;DHT22;13284;52.748;13.452;2023-07-09T03:00:44;15.60;99.90
25332;DHT22;13284;52.748;13.452;2023-07-09T03:03:11;15.60;99.90
25332;DHT22;13284;52.748;13.452;2023-07-09T03:05:36;15.60;99.90
25332;DHT22;13284;52.748;13.452;2023-07-09T03:08:02;15.60;99.90
25332;DHT22;13284;52.748;13.452;2023-07-09T03:10:28;15.60;99.90
25332;DHT22;13284;52.748;13.452;2023-07-09T03:12:54;15.60;99.90
25332;DHT22;13284;52.748;13.452;2023-07-09T03:15:19;15.60;99.90
25332;DHT22;13284;52.748;13.452;2023-07-09T03:17:45;15.70;99.90
25332;DHT22;13284;52.748;13.452;2023-07-09T03:20:11;15.60;99.90
25332;DHT22;13284;52.748;13.452;2023-07-09T03:22:36;15.60;99.90
25332;DHT22;13284;52.748;13.452;2023-07-09T03:25:02;15.70;99.90
25332;DHT22;13284;52.748;13.452;2023-07-09T03:27:28;15.70;99.90
25332;DHT22;13284;52.748;13.452;2023-07-09T03:29:53;15.70;99.90
25332;DHT22;13284;52.748;13.452;2023-07-09T03:32:20;15.60;99.90
25332;DHT22;13284;52.748;13.452;2023-07-09T03:34:45;15.70;99.90
25332;DHT22;13284;52.748;13.452;2023-07-09T03:37:12;15.70;99.90
25332;DHT22;13284;52.748;13.452;2023-07-09T03:39:37;15.70;99.90
25332;DHT22;13284;52.748;13.452;2023-07-09T03:42:03;15.70;99.90
25332;DHT22;13284;52.748;13.452;2023-07-09T03:44:28;15.70;99.90
25332;DHT22;13284;52.748;13.452;2023-07-09T03:46:54;15.70;99.90
25332;DHT22;13284;52.748;13.452;2023-07-09T03:49:28;15.80;99.90
25332;DHT22;13284;52.748;13.452;2023-07-09T03:51:54;15.80;99.90
25332;DHT22;13284;52.748;13.452;2023-07-09T03:54:19;15.90;99.90
25332;DHT22;13284;52.748;13.452;2023-07-09T03:56:45;15.90;99.90
25332;DHT22;13284;52.748;13.452;2023-07-09T03:59:10;16.00;99.90
25332;DHT22;13284;52.748;13.452;2023-07-09T04:01:36;16.00;99.90
25332;DHT22;13284;52.748;13.452;2023-07-09T04:04:05;16.00;99.90
25332;DHT22;13284;52.748;13.452;2023-07-09T04:06:30;16.00;99.90
25332;DHT22;13284;52.748;13.452;2023-07-09T04:08:56;16.10;99.90
25332;DHT22;13284;52.748;13.452;2023-07-09T04:11:21;16.00;99.90
25332;DHT22;13284;52.748;13.452;2023-07-09T04:13:47;16.10;99.90
25332;DHT22;13284;52.748;13.452;2023-07-09T04:16:12;16.20;99.90
25332;DHT22;13284;52.748;13.452;2023-07-09T04:18:38;16.30;99.90
25332;DHT22;13284;52.748;13.452;2023-07-09T04:21:03;16.40;99.90
25332;DHT22;13284;52.748;13.452;2023-07-09T04:23:29;16.40;99.90
25332;DHT22;13284;52.748;13.452;2023-07-09T04:25:54;16.60;99.90
25332;DHT22;13284;52.748;13.452;2023-07-09T04:28:20;16.80;99.90
25332;DHT22;13284;52.748;13.452;2023-07-09T04:30:48;16.90;99.90
25332;DHT22;13284;52.748;13.452;2023-07-09T04:33:13;17.10;99.90
25332;DHT22;13284;52.748;13.452;2023-07-09T04:35:43;17.30;99.90
25332;DHT22;13284;52.748;13.452;2023-07-09T04:38:08;17.40;99.90
25332;DHT22;13284;52.748;13.452;2023-07-09T04:40:34;17.50;99.90
25332;DHT22;13284;52.748;13.452;2023-07-09T04:42:59;17.70;99.90
25332;DHT22;13284;52.748;13.452;2023-07-09T04:45:25;17.80;99.90
25332;DHT22;13284;52.748;13.452;2023-07-09T04:47:50;17.90;99.90
25332;DHT22;13284;52.748;13.452;2023-07-09T04:50:18;18.10;99.90
25332;DHT22;13284;52.748;13.452;2023-07-09T04:52:43;18.40;99.90
25332;DHT22;13284;52.748;13.452;2023-07-09T04:55:09;18.40;99.90
25332;DHT22;13284;52.748;13.452;2023-07-09T04:57:34;18.50;99.90
25332;DHT22;13284;52.748;13.452;2023-07-09T05:00:00;18.70;99.90
25332;DHT22;13284;52.748;13.452;2023-07-09T05:02:26;18.60;99.90
25332;DHT22;13284;52.748;13.452;2023-07-09T05:04:52;18.80;99.90
25332;DHT22;13284;52.748;13.452;2023-07-09T05:07:17;18.90;99.90
25332;DHT22;13284;52.748;13.452;2023-07-09T05:09:43;19.10;99.90
25332;DHT22;13284;52.748;13.452;2023-07-09T05:12:08;19.30;99.90
25332;DHT22;13284;52.748;13.452;2023-07-09T05:14:34;19.50;99.90
25332;DHT22;13284;52.748;13.452;2023-07-09T05:16:59;19.70;99.90
25332;DHT22;13284;52.748;13.452;2023-07-09T05:19:25;19.90;99.90
25332;DHT22;13284;52.748;13.452;2023-07-09T05:21:50;20.10;99.90
25332;DHT22;13284;52.748;13.452;2023-07-09T05:24:16;20.30;99.90
25332;DHT22;13284;52.748;13.452;2023-07-09T05:26:41;20.40;99.90
25332;DHT22;13284;52.748;13.452;2023-07-09T05:29:07;20.60;99.90
25332;DHT22;13284;52.748;13.452;2023-07-09T05:31:33;20.60;99.90
25332;DHT22;13284;52.748;13.452;2023-07-09T05:33:59;20.80;99.90
25332;DHT22;13284;52.748;13.452;2023-07-09T05:36:26;20.80;99.90
25332;DHT22;13284;52.748;13.452;2023-07-09T05:38:52;21.00;99.90
25332;DHT22;13284;52.748;13.452;2023-07-09T05:41:18;21.10;99.90
25332;DHT22;13284;52.748;13.452;2023-07-09T05:43:44;21.40;99.90
25332;DHT22;13284;52.748;13.452;2023-07-09T05:46:11;21.40;99.90
25332;DHT22;13284;52.748;13.452;2023-07-09T05:48:37;21.60;99.90
25332;DHT22;13284;52.748;13.452;2023-07-09T05:51:02;21.90;99.90
25332;DHT22;13284;52.748;13.452;2023-07-09T05:53:28;22.00;99.90
25332;DHT22;13284;52.748;13.452;2023-07-09T05:55:55;22.20;99.90
25332;DHT22;13284;52.748;13.452;2023-07-09T05:58:21;22.30;99.90
25332;DHT22;13284;52.748;13.452;2023-07-09T06:00:50;22.50;99.90
25332;DHT22;13284;52.748;13.452;2023-07-09T06:03:19;22.70;99.90
25332;DHT22;13284;52.748;13.452;2023-07-09T06:05:45;22.80;99.90
25332;DHT22;13284;52.748;13.452;2023-07-09T06:08:10;23.10;99.90
25332;DHT22;13284;52.748;13.452;2023-07-09T06:10:38;23.20;99.90
25332;DHT22;13284;52.748;13.452;2023-07-09T06:13:05;23.40;99.90
25332;DHT22;13284;52.748;13.452;2023-07-09T06:15:31;23.40;99.90
25332;DHT22;13284;52.748;13.452;2023-07-09T06:17:57;23.50;99.90
25332;DHT22;13284;52.748;13.452;2023-07-09T06:20:22;23.60;99.90
25332;DHT22;13284;52.748;13.452;2023-07-09T06:22:48;23.80;99.90
25332;DHT22;13284;52.748;13.452;2023-07-09T06:25:13;24.00;99.90
25332;DHT22;13284;52.748;13.452;2023-07-09T06:27:39;24.30;99.90
25332;DHT22;13284;52.748;13.452;2023-07-09T06:30:05;24.50;99.90
25332;DHT22;13284;52.748;13.452;2023-07-09T06:32:30;24.30;99.90
25332;DHT22;13284;52.748;13.452;2023-07-09T06:34:56;24.50;99.90
25332;DHT22;13284;52.748;13.452;2023-07-09T06:37:21;24.40;99.90
25332;DHT22;13284;52.748;13.452;2023-07-09T06:39:47;24.70;99.90
25332;DHT22;13284;52.748;13.452;2023-07-09T06:42:12;24.70;99.90
25332;DHT22;13284;52.748;13.452;2023-07-09T06:44:38;24.80;99.90
25332;DHT22;13284;52.748;13.452;2023-07-09T06:47:04;24.90;99.90
25332;DHT22;13284;52.748;13.452;2023-07-09T06:49:29;25.20;99.90
25332;DHT22;13284;52.748;13.452;2023-07-09T06:51:55;25.30;99.90
25332;DHT22;13284;52.748;13.452;2023-07-09T06:54:20;25.50;99.90
25332;DHT22;13284;52.748;13.452;2023-07-09T06:56:45;25.70;99.90
25332;DHT22;13284;52.748;13.452;2023-07-09T06:59:11;25.60;99.90
25332;DHT22;13284;52.748;13.452;2023-07-09T07:01:36;25.60;99.90
25332;DHT22;13284;52.748;13.452;2023-07-09T07:04:02;25.70;99.90
25332;DHT22;13284;52.748;13.452;2023-07-09T07:06:27;25.80;99.90
25332;DHT22;13284;52.748;13.452;2023-07-09T07:08:53;25.80;99.90
25332;DHT22;13284;52.748;13.452;2023-07-09T07:11:18;25.70;99.90
25332;DHT22;13284;52.748;13.452;2023-07-09T07:13:44;25.90;99.90
25332;DHT22;13284;52.748;13.452;2023-07-09T07:16:11;25.60;99.90
25332;DHT22;13284;52.748;13.452;2023-07-09T07:18:37;25.60;99.90
25332;DHT22;13284;52.748;13.452;2023-07-09T07:21:03;25.70;99.90
25332;DHT22;13284;52.748;13.452;2023-07-09T07:23:29;25.80;99.90
25332;DHT22;13284;52.748;13.452;2023-07-09T07:25:55;26.00;99.90
25332;DHT22;13284;52.748;13.452;2023-07-09T07:28:21;25.90;99.90
25332;DHT22;13284;52.748;13.452;2023-07-09T07:30:46;26.00;99.90
25332;DHT22;13284;52.748;13.452;2023-07-09T07:33:14;26.20;99.90
25332;DHT22;13284;52.748;13.452;2023-07-09T07:35:41;26.30;99.90
25332;DHT22;13284;52.748;13.452;2023-07-09T07:38:07;26.40;99.90
25332;DHT22;13284;52.748;13.452;2023-07-09T07:40:32;26.40;99.90
25332;DHT22;13284;52.748;13.452;2023-07-09T07:42:57;26.40;99.90
25332;DHT22;13284;52.748;13.452;2023-07-09T07:45:23;26.50;99.90
25332;DHT22;13284;52.748;13.452;2023-07-09T07:47:49;26.70;99.90
25332;DHT22;13284;52.748;13.452;2023-07-09T07:50:16;26.50;99.90
25332;DHT22;13284;52.748;13.452;2023-07-09T07:52:42;26.70;99.90
25332;DHT22;13284;52.748;13.452;2023-07-09T07:55:08;26.60;99.90
25332;DHT22;13284;52.748;13.452;2023-07-09T07:57:34;26.70;99.90
25332;DHT22;13284;52.748;13.452;2023-07-09T08:00:00;26.90;99.90
25332;DHT22;13284;52.748;13.452;2023-07-09T08:02:25;27.30;99.90
25332;DHT22;13284;52.748;13.452;2023-07-09T08:04:51;27.90;99.90
25332;DHT22;13284;52.748;13.452;2023-07-09T08:07:18;28.60;99.90
25332;DHT22;13284;52.748;13.452;2023-07-09T08:09:45;28.90;99.90
25332;DHT22;13284;52.748;13.452;2023-07-09T08:12:12;29.30;99.30
25332;DHT22;13284;52.748;13.452;2023-07-09T08:14:39;29.50;98.00
25332;DHT22;13284;52.748;13.452;2023-07-09T08:17:05;29.60;98.30
25332;DHT22;13284;52.748;13.452;2023-07-09T08:19:31;29.90;98.20
25332;DHT22;13284;52.748;13.452;2023-07-09T08:21:58;30.30;98.00
25332;DHT22;13284;52.748;13.452;2023-07-09T08:24:23;30.50;96.80
25332;DHT22;13284;52.748;13.452;2023-07-09T08:26:57;30.40;95.80
25332;DHT22;13284;52.748;13.452;2023-07-09T08:29:25;30.70;94.90
25332;DHT22;13284;52.748;13.452;2023-07-09T08:31:51;30.80;95.10
25332;DHT22;13284;52.748;13.452;2023-07-09T08:34:16;31.00;94.70
25332;DHT22;13284;52.748;13.452;2023-07-09T08:36:42;31.00;93.70
25332;DHT22;13284;52.748;13.452;2023-07-09T08:39:07;31.00;94.10
25332;DHT22;13284;52.748;13.452;2023-07-09T08:41:45;31.10;93.10
25332;DHT22;13284;52.748;13.452;2023-07-09T08:47:07;31.20;94.50
25332;DHT22;13284;52.748;13.452;2023-07-09T08:49:54;31.10;93.10
25332;DHT22;13284;52.748;13.452;2023-07-09T08:52:35;31.30;93.40
25332;DHT22;13284;52.748;13.452;2023-07-09T08:55:08;31.80;93.20
25332;DHT22;13284;52.748;13.452;2023-07-09T08:57:39;31.50;93.30
25332;DHT22;13284;52.748;13.452;2023-07-09T09:00:24;32.00;93.40
25332;DHT22;13284;52.748;13.452;2023-07-09T09:02:55;30.90;92.20
25332;DHT22;13284;52.748;13.452;2023-07-09T09:05:22;31.70;92.70
25332;DHT22;13284;52.748;13.452;2023-07-09T09:08:03;32.20;92.60
25332;DHT22;13284;52.748;13.452;2023-07-09T09:10:34;32.70;92.30
25332;DHT22;13284;52.748;13.452;2023-07-09T09:13:12;32.30;91.80
25332;DHT22;13284;52.748;13.452;2023-07-09T09:15:44;32.10;93.30
25332;DHT22;13284;52.748;13.452;2023-07-09T09:18:25;32.80;91.80
25332;DHT22;13284;52.748;13.452;2023-07-09T09:21:31;32.80;90.30
25332;DHT22;13284;52.748;13.452;2023-07-09T09:23:50;33.70;88.10
25332;DHT22;13284;52.748;13.452;2023-07-09T09:26:21;32.70;87.50
25332;DHT22;13284;52.748;13.452;2023-07-09T09:28:48;33.30;90.70
25332;DHT22;13284;52.748;13.452;2023-07-09T09:31:15;33.50;89.80
25332;DHT22;13284;52.748;13.452;2023-07-09T09:33:46;33.60;87.00
25332;DHT22;13284;52.748;13.452;2023-07-09T09:36:19;33.80;86.00
25332;DHT22;13284;52.748;13.452;2023-07-09T09:38:45;34.30;86.00
25332;DHT22;13284;52.748;13.452;2023-07-09T09:41:20;34.70;85.30
25332;DHT22;13284;52.748;13.452;2023-07-09T09:43:47;34.40;83.10
25332;DHT22;13284;52.748;13.452;2023-07-09T09:46:19;34.90;83.80
25332;DHT22;13284;52.748;13.452;2023-07-09T09:48:47;34.50;83.20
25332;DHT22;13284;52.748;13.452;2023-07-09T09:51:14;34.20;84.90
25332;DHT22;13284;52.748;13.452;2023-07-09T09:53:41;34.60;83.60
25332;DHT22;13284;52.748;13.452;2023-07-09T09:56:23;34.40;82.90
25332;DHT22;13284;52.748;13.452;2023-07-09T09:58:53;35.40;83.80
25332;DHT22;13284;52.748;13.452;2023-07-09T10:01:21;35.60;81.70
25332;DHT22;13284;52.748;13.452;2023-07-09T10:03:51;35.00;81.80
25332;DHT22;13284;52.748;13.452;2023-07-09T10:06:34;35.60;82.20
25332;DHT22;13284;52.748;13.452;2023-07-09T10:09:26;35.90;80.30
25332;DHT22;13284;52.748;13.452;2023-07-09T10:14:32;35.40;77.60
25332;DHT22;13284;52.748;13.452;2023-07-09T10:17:28;35.40;77.80
25332;DHT22;13284;52.748;13.452;2023-07-09T10:20:30;36.10;76.90
25332;DHT22;13284;52.748;13.452;2023-07-09T10:23:28;36.30;76.20
25332;DHT22;13284;52.748;13.452;2023-07-09T10:26:06;35.70;73.40
25332;DHT22;13284;52.748;13.452;2023-07-09T10:29:07;34.80;74.30
25332;DHT22;13284;52.748;13.452;2023-07-09T10:32:07;35.60;74.80
25332;DHT22;13284;52.748;13.452;2023-07-09T10:34:54;35.90;76.00
25332;DHT22;13284;52.748;13.452;2023-07-09T10:40:17;37.40;72.50
25332;DHT22;13284;52.748;13.452;2023-07-09T10:42:48;37.30;70.60
25332;DHT22;13284;52.748;13.452;2023-07-09T10:45:21;37.20;73.30
25332;DHT22;13284;52.748;13.452;2023-07-09T10:47:52;36.80;71.60
25332;DHT22;13284;52.748;13.452;2023-07-09T10:50:39;36.80;71.60
25332;DHT22;13284;52.748;13.452;2023-07-09T10:53:14;37.30;70.60
25332;DHT22;13284;52.748;13.452;2023-07-09T10:56:00;36.50;72.10
25332;DHT22;13284;52.748;13.452;2023-07-09T10:58:49;37.00;70.40
25332;DHT22;13284;52.748;13.452;2023-07-09T11:01:26;37.70;68.90
25332;DHT22;13284;52.748;13.452;2023-07-09T11:03:58;37.10;66.80
25332;DHT22;13284;52.748;13.452;2023-07-09T11:06:37;37.60;68.10
25332;DHT22;13284;52.748;13.452;2023-07-09T11:09:11;36.90;66.70
25332;DHT22;13284;52.748;13.452;2023-07-09T11:11:41;36.40;65.40
25332;DHT22;13284;52.748;13.452;2023-07-09T11:14:21;36.30;66.90
25332;DHT22;13284;52.748;13.452;2023-07-09T11:16:48;36.80;66.80
25332;DHT22;13284;52.748;13.452;2023-07-09T11:19:17;35.70;66.50
25332;DHT22;13284;52.748;13.452;2023-07-09T11:22:04;35.70;67.40
25332;DHT22;13284;52.748;13.452;2023-07-09T11:24:33;36.20;68.70
25332;DHT22;13284;52.748;13.452;2023-07-09T11:26:59;36.90;67.40
25332;DHT22;13284;52.748;13.452;2023-07-09T11:29:26;36.50;66.80
25332;DHT22;13284;52.748;13.452;2023-07-09T11:31:53;37.00;67.40
25332;DHT22;13284;52.748;13.452;2023-07-09T11:34:20;36.50;64.10
25332;DHT22;13284;52.748;13.452;2023-07-09T11:39:23;36.50;65.60
25332;DHT22;13284;52.748;13.452;2023-07-09T11:41:52;36.00;67.20
25332;DHT22;13284;52.748;13.452;2023-07-09T11:44:25;36.70;65.10
25332;DHT22;13284;52.748;13.452;2023-07-09T11:50:00;35.90;66.00
25332;DHT22;13284;52.748;13.452;2023-07-09T11:52:47;36.90;63.70
25332;DHT22;13284;52.748;13.452;2023-07-09T11:57:48;36.80;62.40
25332;DHT22;13284;52.748;13.452;2023-07-09T12:00:20;37.00;64.60
25332;DHT22;13284;52.748;13.452;2023-07-09T12:02:46;37.10;62.00
25332;DHT22;13284;52.748;13.452;2023-07-09T12:05:12;37.30;63.90
25332;DHT22;13284;52.748;13.452;2023-07-09T12:07:39;37.70;62.60
25332;DHT22;13284;52.748;13.452;2023-07-09T12:10:18;37.50;62.70
25332;DHT22;13284;52.748;13.452;2023-07-09T12:12:44;37.60;64.40
25332;DHT22;13284;52.748;13.452;2023-07-09T12:15:29;37.50;65.10
25332;DHT22;13284;52.748;13.452;2023-07-09T12:18:02;36.80;64.40
25332;DHT22;13284;52.748;13.452;2023-07-09T12:20:35;37.70;65.00
25332;DHT22;13284;52.748;13.452;2023-07-09T12:23:31;38.30;63.10
25332;DHT22;13284;52.748;13.452;2023-07-09T12:25:59;37.70;63.80
25332;DHT22;13284;52.748;13.452;2023-07-09T12:28:27;37.90;59.70
25332;DHT22;13284;52.748;13.452;2023-07-09T12:30:53;37.70;62.20
25332;DHT22;13284;52.748;13.452;2023-07-09T12:33:21;37.60;61.00
25332;DHT22;13284;52.748;13.452;2023-07-09T12:36:00;37.20;61.70
25332;DHT22;13284;52.748;13.452;2023-07-09T12:38:31;36.80;63.80
25332;DHT22;13284;52.748;13.452;2023-07-09T12:41:00;36.50;64.10
25332;DHT22;13284;52.748;13.452;2023-07-09T12:43:28;35.70;62.80
25332;DHT22;13284;52.748;13.452;2023-07-09T12:45:57;35.10;63.20
25332;DHT22;13284;52.748;13.452;2023-07-09T12:48:26;35.50;65.50
25332;DHT22;13284;52.748;13.452;2023-07-09T12:50:55;36.00;65.20
25332;DHT22;13284;52.748;13.452;2023-07-09T12:53:24;35.90;64.70
25332;DHT22;13284;52.748;13.452;2023-07-09T12:55:54;35.60;63.30
25332;DHT22;13284;52.748;13.452;2023-07-09T12:58:23;35.50;64.60
25332;DHT22;13284;52.748;13.452;2023-07-09T13:00:54;35.50;65.50
25332;DHT22;13284;52.748;13.452;2023-07-09T13:03:27;35.00;63.40
25332;DHT22;13284;52.748;13.452;2023-07-09T13:06:01;34.50;64.30
25332;DHT22;13284;52.748;13.452;2023-07-09T13:08:31;34.60;64.20
25332;DHT22;13284;52.748;13.452;2023-07-09T13:10:57;34.80;66.30
25332;DHT22;13284;52.748;13.452;2023-07-09T13:13:24;34.90;65.00
25332;DHT22;13284;52.748;13.452;2023-07-09T13:15:57;34.40;64.70
25332;DHT22;13284;52.748;13.452;2023-07-09T13:18:24;34.20;65.40
25332;DHT22;13284;52.748;13.452;2023-07-09T13:20:51;34.10;65.00
25332;DHT22;13284;52.748;13.452;2023-07-09T13:23:20;34.50;64.50
25332;DHT22;13284;52.748;13.452;2023-07-09T13:25:46;34.90;64.60
25332;DHT22;13284;52.748;13.452;2023-07-09T13:28:32;35.20;64.40
25332;DHT22;13284;52.748;13.452;2023-07-09T13:31:17;35.10;64.30
25332;DHT22;13284;52.748;13.452;2023-07-09T13:33:44;35.20;64.90
25332;DHT22;13284;52.748;13.452;2023-07-09T13:36:15;35.00;64.90
25332;DHT22;13284;52.748;13.452;2023-07-09T13:38:40;34.80;65.70
25332;DHT22;13284;52.748;13.452;2023-07-09T13:41:17;34.50;66.00
25332;DHT22;13284;52.748;13.452;2023-07-09T13:43:45;34.40;64.80
25332;DHT22;13284;52.748;13.452;2023-07-09T13:46:12;34.50;65.80
25332;DHT22;13284;52.748;13.452;2023-07-09T13:48:40;34.30;65.30
25332;DHT22;13284;52.748;13.452;2023-07-09T13:51:27;34.20;65.40
25332;DHT22;13284;52.748;13.452;2023-07-09T13:53:54;33.90;65.90
25332;DHT22;13284;52.748;13.452;2023-07-09T13:56:21;33.90;67.10
25332;DHT22;13284;52.748;13.452;2023-07-09T13:58:46;33.70;66.20
25332;DHT22;13284;52.748;13.452;2023-07-09T14:01:15;33.40;67.10
25332;DHT22;13284;52.748;13.452;2023-07-09T14:03:41;33.70;66.70
25332;DHT22;13284;52.748;13.452;2023-07-09T14:06:15;33.60;66.10
25332;DHT22;13284;52.748;13.452;2023-07-09T14:08:41;33.80;68.10
25332;DHT22;13284;52.748;13.452;2023-07-09T14:11:12;33.80;67.90
25332;DHT22;13284;52.748;13.452;2023-07-09T14:13:38;34.10;67.80
25332;DHT22;13284;52.748;13.452;2023-07-09T14:16:03;34.10;68.40
25332;DHT22;13284;52.748;13.452;2023-07-09T14:18:29;33.40;65.70
25332;DHT22;13284;52.748;13.452;2023-07-09T14:20:55;33.50;66.10
25332;DHT22;13284;52.748;13.452;2023-07-09T14:23:21;33.90;67.90
25332;DHT22;13284;52.748;13.452;2023-07-09T14:25:50;33.70;67.40
25332;DHT22;13284;52.748;13.452;2023-07-09T14:28:19;33.90;69.00
25332;DHT22;13284;52.748;13.452;2023-07-09T14:30:46;34.10;67.70
25332;DHT22;13284;52.748;13.452;2023-07-09T14:33:16;34.10;68.50
25332;DHT22;13284;52.748;13.452;2023-07-09T14:35:42;33.90;68.40
25332;DHT22;13284;52.748;13.452;2023-07-09T14:38:26;33.80;69.30
25332;DHT22;13284;52.748;13.452;2023-07-09T14:40:56;33.80;69.10
25332;DHT22;13284;52.748;13.452;2023-07-09T14:43:24;33.50;66.20
25332;DHT22;13284;52.748;13.452;2023-07-09T14:45:52;33.60;68.10
25332;DHT22;13284;52.748;13.452;2023-07-09T14:48:20;33.80;68.40
25332;DHT22;13284;52.748;13.452;2023-07-09T14:50:46;33.90;71.00
25332;DHT22;13284;52.748;13.452;2023-07-09T14:53:15;33.70;67.90
25332;DHT22;13284;52.748;13.452;2023-07-09T14:55:41;33.60;70.00
25332;DHT22;13284;52.748;13.452;2023-07-09T14:58:16;33.60;71.60
25332;DHT22;13284;52.748;13.452;2023-07-09T15:00:42;33.70;71.00
25332;DHT22;13284;52.748;13.452;2023-07-09T15:03:10;33.50;70.20
25332;DHT22;13284;52.748;13.452;2023-07-09T15:05:39;33.50;69.90
25332;DHT22;13284;52.748;13.452;2023-07-09T15:08:16;33.60;68.00
25332;DHT22;13284;52.748;13.452;2023-07-09T15:10:42;33.90;69.80
25332;DHT22;13284;52.748;13.452;2023-07-09T15:13:19;33.80;69.10
25332;DHT22;13284;52.748;13.452;2023-07-09T15:15:46;33.70;69.10
25332;DHT22;13284;52.748;13.452;2023-07-09T15:18:13;33.50;68.40
25332;DHT22;13284;52.748;13.452;2023-07-09T15:20:43;33.70;69.70
25332;DHT22;13284;52.748;13.452;2023-07-09T15:23:11;33.70;68.50
25332;DHT22;13284;52.748;13.452;2023-07-09T15:25:36;33.70;68.40
25332;DHT22;13284;52.748;13.452;2023-07-09T15:28:03;33.60;70.10
25332;DHT22;13284;52.748;13.452;2023-07-09T15:30:30;33.50;70.30
25332;DHT22;13284;52.748;13.452;2023-07-09T15:32:59;33.30;67.70
25332;DHT22;13284;52.748;13.452;2023-07-09T15:35:31;33.30;69.00
25332;DHT22;13284;52.748;13.452;2023-07-09T15:37:56;33.20;69.80
25332;DHT22;13284;52.748;13.452;2023-07-09T15:40:26;33.30;71.40
25332;DHT22;13284;52.748;13.452;2023-07-09T15:42:57;33.40;72.20